createdAt,value
2019-04-14T00:00:53.079Z,23.52
2019-04-14T00:03:30.400Z,22.35
2019-04-14T00:06:06.990Z,22.70
2019-04-14T00:08:37.216Z,23.12
2019-04-14T00:11:06.774Z,23.25
2019-04-14T00:13:37.100Z,23.92
2019-04-14T00:16:07.401Z,24.63
2019-04-14T00:18:36.918Z,23.50
2019-04-14T00:21:08.740Z,23.67
2019-04-14T00:23:39.034Z,25.25
2019-04-14T00:26:29.458Z,23.95
2019-04-14T00:29:00.096Z,23.38
2019-04-14T00:31:32.751Z,23.00
2019-04-14T00:34:05.105Z,25.17
2019-04-14T00:36:54.298Z,24.43
2019-04-14T00:39:40.803Z,24.67
2019-04-14T00:42:14.805Z,23.50
2019-04-14T00:44:45.952Z,24.82
2019-04-14T00:47:17.965Z,24.60
2019-04-14T00:49:48.633Z,24.40
2019-04-14T00:52:18.960Z,25.10
2019-04-14T00:54:48.610Z,24.35
2019-04-14T00:57:20.153Z,23.40
2019-04-14T00:59:50.791Z,23.47
2019-04-14T01:02:23.112Z,24.98
2019-04-14T01:04:53.412Z,23.55
2019-04-14T01:07:24.512Z,24.98
2019-04-14T01:09:55.264Z,25.27
2019-04-14T01:12:25.761Z,24.72
2019-04-14T01:14:56.008Z,24.27
2019-04-14T01:17:26.816Z,22.62
2019-04-14T01:19:57.045Z,25.12
2019-04-14T01:22:27.696Z,24.67
2019-04-14T01:24:57.549Z,24.95
2019-04-14T01:27:27.753Z,24.30
2019-04-14T01:29:58.163Z,24.47
2019-04-14T01:32:30.403Z,25.70
2019-04-14T01:35:00.912Z,26.55
2019-04-14T01:37:33.302Z,24.75
2019-04-14T01:40:03.309Z,23.57
2019-04-14T01:42:35.526Z,26.12
2019-04-14T01:45:06.435Z,23.95
2019-04-14T01:47:37.715Z,24.02
2019-04-14T01:50:08.304Z,24.50
2019-04-14T01:52:45.974Z,23.90
2019-04-14T01:55:23.084Z,24.77
2019-04-14T01:58:03.309Z,25.43
2019-04-14T02:00:46.692Z,26.23
2019-04-14T02:03:17.068Z,26.48
2019-04-14T02:05:47.446Z,24.05
2019-04-14T02:08:17.711Z,24.87
2019-04-14T02:10:47.815Z,26.10
2019-04-14T02:13:18.199Z,24.27
2019-04-14T02:15:49.014Z,26.02
2019-04-14T02:18:18.634Z,25.02
2019-04-14T02:20:49.050Z,26.25
2019-04-14T02:23:19.259Z,24.05
2019-04-14T02:25:51.329Z,24.80
2019-04-14T02:28:22.032Z,24.87
2019-04-14T02:31:06.341Z,23.85
2019-04-14T02:39:01.813Z,26.55
2019-04-14T02:41:33.750Z,25.92
2019-04-14T02:44:04.705Z,25.75
2019-04-14T02:46:34.543Z,24.82
2019-04-14T02:51:35.058Z,25.05
2019-04-14T03:01:38.764Z,24.30
2019-04-14T03:04:06.779Z,23.30
2019-04-14T03:06:46.856Z,25.80
2019-04-14T03:11:46.153Z,25.15
2019-04-14T03:14:19.663Z,26.20
2019-04-14T03:17:10.268Z,26.62
2019-04-14T03:19:41.124Z,24.50
2019-04-14T03:22:19.882Z,25.23
2019-04-14T03:24:42.091Z,25.02
2019-04-14T03:27:32.902Z,25.62
2019-04-14T03:30:34.013Z,26.50
2019-04-14T03:33:12.702Z,24.90
2019-04-14T03:38:11.320Z,30.00
2019-04-14T03:40:19.788Z,24.57
2019-04-14T03:45:26.130Z,28.98
2019-04-14T03:48:15.255Z,26.02
2019-04-14T03:50:21.610Z,39.27
2019-04-14T03:52:59.636Z,31.80
2019-04-14T03:55:15.986Z,26.17
2019-04-14T03:57:32.460Z,24.85
2019-04-14T04:00:03.177Z,26.75
2019-04-14T04:02:34.454Z,27.27
2019-04-14T04:05:06.346Z,26.05
2019-04-14T04:07:37.192Z,26.73
2019-04-14T04:10:09.256Z,26.17
2019-04-14T04:12:40.319Z,25.43
2019-04-14T04:15:10.504Z,26.30
2019-04-14T04:17:49.466Z,27.22
2019-04-14T04:20:35.544Z,26.90
2019-04-14T04:23:07.401Z,44.63
2019-04-14T04:25:42.195Z,30.30
2019-04-14T04:28:14.425Z,29.82
2019-04-14T04:30:47.069Z,27.30
2019-04-14T04:33:30.611Z,28.17
2019-04-14T04:36:07.669Z,26.35
2019-04-14T04:38:48.704Z,27.65
2019-04-14T04:41:18.977Z,28.07
2019-04-14T04:43:49.398Z,27.13
2019-04-14T04:46:20.259Z,27.98
2019-04-14T04:49:02.037Z,27.77
2019-04-14T04:51:20.722Z,25.05
2019-04-14T04:53:50.527Z,33.28
2019-04-14T04:56:20.803Z,28.40
2019-04-14T04:58:50.403Z,28.60
2019-04-14T05:01:21.377Z,27.22
2019-04-14T05:03:51.398Z,27.42
2019-04-14T05:06:59.036Z,26.77
2019-04-14T05:09:36.756Z,28.00
2019-04-14T05:12:24.239Z,26.20
2019-04-14T05:14:58.821Z,27.00
2019-04-14T05:17:30.280Z,27.85
2019-04-14T05:20:00.712Z,29.40
2019-04-14T05:22:33.269Z,28.62
2019-04-14T05:25:03.616Z,28.35
2019-04-14T05:27:34.608Z,28.75
2019-04-14T05:30:06.779Z,27.52
2019-04-14T05:32:39.030Z,29.52
2019-04-14T05:35:09.649Z,28.67
2019-04-14T05:37:40.656Z,29.37
2019-04-14T05:40:10.329Z,31.77
2019-04-14T05:42:41.252Z,26.33
2019-04-14T05:45:11.189Z,28.73
2019-04-14T05:47:42.116Z,33.67
2019-04-14T05:50:11.755Z,28.00
2019-04-14T05:52:42.623Z,28.12
2019-04-14T05:55:13.387Z,29.05
2019-04-14T05:57:44.507Z,30.12
2019-04-14T06:00:16.656Z,29.12
2019-04-14T06:02:48.510Z,29.10
2019-04-14T06:05:18.988Z,29.35
2019-04-14T06:07:49.894Z,29.87
2019-04-14T06:10:19.310Z,29.67
2019-04-14T06:12:50.136Z,30.25
2019-04-14T06:15:19.579Z,29.25
2019-04-14T06:17:50.449Z,29.18
2019-04-14T06:20:19.902Z,31.77
2019-04-14T06:22:50.754Z,31.57
2019-04-14T06:25:20.227Z,28.62
2019-04-14T06:27:51.038Z,29.90
2019-04-14T06:30:30.974Z,29.63
2019-04-14T06:33:02.130Z,30.25
2019-04-14T06:35:35.985Z,30.80
2019-04-14T06:38:07.057Z,28.32
2019-04-14T06:40:45.334Z,30.90
2019-04-14T06:43:14.846Z,31.05
2019-04-14T06:45:44.272Z,29.67
2019-04-14T06:48:13.717Z,28.25
2019-04-14T06:50:43.201Z,28.57
2019-04-14T06:53:12.723Z,27.25
2019-04-14T06:55:43.415Z,29.35
2019-04-14T06:58:12.934Z,27.10
2019-04-14T07:00:43.923Z,27.70
2019-04-14T07:03:13.372Z,30.08
2019-04-14T07:05:42.850Z,28.00
2019-04-14T07:08:12.331Z,27.17
2019-04-14T07:10:41.752Z,27.50
2019-04-14T07:13:13.752Z,29.90
2019-04-14T07:15:42.309Z,27.63
2019-04-14T07:18:12.118Z,28.80
2019-04-14T07:20:41.767Z,26.57
2019-04-14T07:23:11.211Z,26.67
2019-04-14T07:25:40.668Z,30.33
2019-04-14T07:28:10.181Z,26.07
2019-04-14T07:30:48.552Z,28.70
2019-04-14T07:33:31.789Z,28.60
2019-04-14T07:36:19.212Z,28.80
2019-04-14T07:38:53.285Z,28.67
2019-04-14T07:41:24.408Z,29.90
2019-04-14T07:44:07.414Z,28.70
2019-04-14T07:46:38.540Z,28.37
2019-04-14T07:49:26.037Z,27.30
2019-04-14T07:52:04.481Z,29.60
2019-04-14T07:54:53.912Z,25.90
2019-04-14T07:57:29.175Z,28.77
2019-04-14T08:00:16.009Z,28.60
2019-04-14T08:02:54.159Z,26.77
2019-04-14T08:05:28.263Z,28.43
2019-04-14T08:07:57.680Z,28.40
2019-04-14T08:10:28.401Z,27.27
2019-04-14T08:12:57.878Z,27.50
2019-04-14T08:15:27.336Z,27.03
2019-04-14T08:17:58.303Z,28.40
2019-04-14T08:20:28.156Z,28.00
2019-04-14T08:22:58.010Z,26.37
2019-04-14T08:25:29.054Z,25.10
2019-04-14T08:27:58.491Z,29.20
2019-04-14T08:30:27.939Z,24.63
2019-04-14T08:32:57.354Z,25.70
2019-04-14T08:35:27.027Z,27.27
2019-04-14T08:37:56.511Z,25.67
2019-04-14T08:40:27.426Z,27.40
2019-04-14T08:42:58.482Z,23.87
2019-04-14T08:45:36.427Z,19.50
2019-04-14T08:48:19.757Z,19.23
2019-04-14T08:50:56.934Z,18.83
2019-04-14T08:53:37.072Z,18.53
2019-04-14T08:56:18.211Z,19.20
2019-04-14T08:59:05.275Z,17.90
2019-04-14T09:01:37.822Z,17.80
2019-04-14T09:04:15.049Z,18.97
2019-04-14T09:06:58.069Z,17.40
2019-04-14T09:09:31.995Z,15.93
2019-04-14T09:12:14.743Z,16.27
2019-04-14T09:14:35.575Z,17.97
2019-04-14T09:17:05.086Z,17.13
2019-04-14T09:19:34.575Z,16.60
2019-04-14T09:22:05.364Z,16.30
2019-04-14T09:24:35.315Z,15.30
2019-04-14T09:27:06.116Z,15.67
2019-04-14T09:29:35.599Z,16.73
2019-04-14T09:32:06.749Z,17.10
2019-04-14T09:34:36.230Z,15.93
2019-04-14T09:37:06.948Z,17.07
2019-04-14T09:39:36.365Z,17.60
2019-04-14T09:42:06.018Z,17.40
2019-04-14T09:44:35.497Z,17.10
2019-04-14T09:47:04.933Z,16.13
2019-04-14T09:49:34.782Z,17.90
2019-04-14T09:52:04.228Z,18.00
2019-04-14T09:54:33.714Z,16.40
2019-04-14T09:57:04.425Z,17.40
2019-04-14T09:59:33.907Z,16.83
2019-04-14T10:02:04.622Z,18.30
2019-04-14T10:04:34.042Z,17.73
2019-04-14T10:07:04.762Z,16.20
2019-04-14T10:09:34.416Z,16.80
2019-04-14T10:12:05.123Z,14.93
2019-04-14T10:14:34.535Z,15.50
2019-04-14T10:17:03.979Z,15.47
2019-04-14T10:19:33.459Z,16.00
2019-04-14T10:22:02.989Z,16.07
2019-04-14T10:24:32.476Z,14.43
2019-04-14T10:27:03.290Z,15.80
2019-04-14T10:29:32.810Z,14.90
2019-04-14T10:32:03.499Z,15.47
2019-04-14T10:34:33.011Z,15.17
2019-04-14T10:37:02.494Z,14.23
2019-04-14T10:39:32.132Z,14.87
2019-04-14T10:42:01.721Z,13.80
2019-04-14T10:44:31.735Z,12.50
2019-04-14T10:47:02.423Z,13.83
2019-04-14T10:49:32.146Z,14.83
2019-04-14T10:52:01.737Z,14.27
2019-04-14T10:54:31.572Z,17.33
2019-04-14T10:57:01.373Z,15.47
2019-04-14T10:59:31.170Z,16.23
2019-04-14T11:02:00.667Z,14.93
2019-04-14T11:04:30.185Z,15.83
2019-04-14T11:07:13.606Z,16.43
2019-04-14T11:09:43.118Z,18.80
2019-04-14T11:12:12.602Z,18.40
2019-04-14T11:14:42.127Z,17.63
2019-04-14T11:17:12.954Z,17.80
2019-04-14T11:19:42.398Z,16.67
2019-04-14T11:22:13.080Z,17.20
2019-04-14T11:24:42.596Z,17.97
2019-04-14T11:27:12.087Z,17.33
2019-04-14T11:29:41.606Z,19.80
2019-04-14T11:32:24.745Z,18.60
2019-04-14T11:34:55.899Z,18.93
2019-04-14T11:37:29.997Z,18.90
2019-04-14T11:39:59.514Z,19.40
2019-04-14T11:42:29.002Z,18.70
2019-04-14T11:44:58.560Z,18.30
2019-04-14T11:47:29.299Z,18.50
2019-04-14T11:49:58.826Z,18.50
2019-04-14T11:52:28.322Z,17.90
2019-04-14T11:54:57.822Z,18.47
2019-04-14T11:57:27.307Z,17.13
2019-04-14T12:00:01.423Z,18.30
2019-04-14T12:02:46.533Z,17.63
2019-04-14T12:05:20.500Z,18.10
2019-04-14T12:07:58.692Z,17.53
2019-04-14T12:10:28.806Z,18.03
2019-04-14T12:12:58.287Z,18.00
2019-04-14T12:15:29.171Z,16.00
2019-04-14T12:17:58.666Z,15.37
2019-04-14T12:20:29.579Z,18.10
2019-04-14T12:22:59.067Z,18.17
2019-04-14T12:25:28.509Z,17.57
2019-04-14T12:27:58.036Z,16.47
2019-04-14T12:30:29.139Z,17.20
2019-04-14T12:32:58.699Z,17.97
2019-04-14T12:35:28.143Z,17.70
2019-04-14T12:37:57.550Z,17.30
2019-04-14T12:40:27.062Z,16.40
2019-04-14T12:42:58.184Z,16.10
2019-04-14T12:45:45.563Z,16.87
2019-04-14T12:48:16.679Z,18.07
2019-04-14T12:50:56.952Z,17.10
2019-04-14T12:53:26.434Z,16.70
2019-04-14T12:55:57.192Z,17.70
2019-04-14T12:58:44.652Z,17.10
2019-04-14T13:01:17.006Z,16.80
2019-04-14T13:03:46.482Z,16.63
2019-04-14T13:06:17.274Z,15.87
2019-04-14T13:08:46.708Z,16.37
2019-04-14T13:11:16.150Z,17.03
2019-04-14T13:13:45.635Z,17.80
2019-04-14T13:16:15.150Z,14.60
2019-04-14T13:18:44.566Z,17.10
2019-04-14T13:21:14.006Z,17.30
2019-04-14T13:23:43.420Z,16.33
2019-04-14T13:26:14.135Z,15.53
2019-04-14T13:28:43.627Z,15.83
2019-04-14T13:31:13.070Z,16.17
2019-04-14T13:33:42.475Z,16.40
2019-04-14T13:36:12.054Z,14.70
2019-04-14T13:38:41.551Z,15.80
2019-04-14T13:41:11.087Z,16.23
2019-04-14T13:43:40.582Z,15.13
2019-04-14T13:46:11.375Z,16.17
2019-04-14T13:48:40.895Z,15.50
2019-04-14T13:51:11.679Z,16.90
2019-04-14T13:53:41.118Z,15.30
2019-04-14T13:56:11.810Z,15.20
2019-04-14T13:58:41.333Z,15.20
2019-04-14T14:01:10.807Z,14.43
2019-04-14T14:03:40.319Z,15.30
2019-04-14T14:06:09.854Z,15.60
2019-04-14T14:08:39.414Z,14.63
2019-04-14T14:11:23.791Z,15.07
2019-04-14T14:14:11.440Z,14.20
2019-04-14T14:16:59.991Z,13.50
2019-04-14T14:19:36.898Z,12.67
2019-04-14T14:22:09.458Z,12.63
2019-04-14T14:24:55.387Z,12.23
2019-04-14T14:27:26.115Z,12.50
2019-04-14T14:29:55.540Z,12.47
2019-04-14T14:32:30.702Z,12.10
2019-04-14T14:35:00.180Z,12.27
2019-04-14T14:37:31.460Z,11.90
2019-04-14T14:40:00.942Z,11.90
2019-04-14T14:42:32.077Z,10.87
2019-04-14T14:45:12.086Z,12.30
2019-04-14T14:47:44.463Z,11.60
2019-04-14T14:50:21.323Z,11.33
2019-04-14T14:52:52.043Z,10.13
2019-04-14T14:55:21.454Z,10.00
2019-04-14T14:57:52.188Z,9.87
2019-04-14T15:00:23.246Z,9.93
2019-04-14T15:02:52.766Z,9.20
2019-04-14T15:05:23.455Z,10.00
2019-04-14T15:07:52.906Z,9.80
2019-04-14T15:10:23.587Z,10.40
2019-04-14T15:12:53.098Z,9.90
2019-04-14T15:15:23.880Z,9.10
2019-04-14T15:17:53.377Z,9.23
2019-04-14T15:20:22.859Z,8.80
2019-04-14T15:22:52.450Z,8.80
2019-04-14T15:25:23.170Z,9.20
2019-04-14T15:27:54.905Z,9.50
2019-04-14T15:30:24.867Z,9.00
2019-04-14T15:32:54.691Z,8.20
2019-04-14T15:35:25.579Z,7.33
2019-04-14T15:37:55.092Z,8.27
2019-04-14T15:40:24.588Z,7.50
2019-04-14T15:42:54.028Z,7.80
2019-04-14T15:45:23.645Z,8.87
2019-04-14T15:47:53.029Z,9.40
2019-04-14T15:50:22.546Z,9.27
2019-04-14T15:52:52.106Z,9.93
2019-04-14T15:55:21.618Z,9.00
2019-04-14T15:58:00.028Z,8.47
2019-04-14T16:00:49.096Z,8.73
2019-04-14T16:03:20.163Z,8.90
2019-04-14T16:05:53.983Z,9.30
2019-04-14T16:08:27.807Z,9.63
2019-04-14T16:11:07.651Z,9.73
2019-04-14T16:13:38.791Z,9.10
2019-04-14T16:16:20.080Z,7.80
2019-04-14T16:19:00.217Z,8.33
2019-04-14T16:21:29.707Z,7.97
2019-04-14T16:23:59.215Z,9.17
2019-04-14T16:26:48.497Z,9.87
2019-04-14T16:29:25.452Z,7.93
2019-04-14T16:32:09.854Z,7.70
2019-04-14T16:34:43.987Z,8.50
2019-04-14T16:37:13.403Z,9.07
2019-04-14T16:39:42.835Z,8.37
2019-04-14T16:42:13.511Z,8.70
2019-04-14T16:44:43.014Z,8.27
2019-04-14T16:47:13.689Z,7.67
2019-04-14T16:49:43.120Z,8.00
2019-04-14T16:52:14.167Z,8.20
2019-04-14T16:54:50.988Z,7.50
2019-04-14T16:57:39.360Z,8.20
2019-04-14T17:00:10.432Z,7.30
2019-04-14T17:02:41.109Z,8.13
2019-04-14T17:05:10.545Z,7.70
2019-04-14T17:07:41.233Z,8.40
2019-04-14T17:10:10.665Z,8.77
2019-04-14T17:12:41.646Z,9.00
2019-04-14T17:15:27.775Z,9.17
2019-04-14T17:18:17.071Z,9.80
2019-04-14T17:20:48.217Z,9.20
2019-04-14T17:23:19.284Z,8.07
2019-04-14T17:25:56.411Z,8.67
2019-04-14T17:28:27.467Z,9.20
2019-04-14T17:31:16.711Z,9.37
2019-04-14T17:33:47.827Z,9.67
2019-04-14T17:36:19.098Z,10.17
2019-04-14T17:38:50.583Z,9.60
2019-04-14T17:41:41.293Z,9.93
2019-04-14T17:44:12.343Z,10.40
2019-04-14T17:46:59.995Z,9.85
2019-04-14T17:49:43.367Z,10.70
2019-04-14T17:52:32.610Z,10.53
2019-04-14T17:55:03.736Z,9.90
2019-04-14T17:57:52.289Z,10.20
2019-04-14T18:00:39.730Z,10.20
2019-04-14T18:03:10.878Z,10.03
2019-04-14T18:05:43.409Z,9.67
2019-04-14T18:08:14.559Z,11.17
2019-04-14T18:10:51.603Z,10.83
2019-04-14T18:13:25.630Z,9.87
2019-04-14T18:16:14.332Z,10.10
2019-04-14T18:19:01.771Z,10.67
2019-04-14T18:21:31.262Z,9.80
2019-04-14T18:24:00.774Z,10.25
2019-04-14T18:26:30.269Z,10.18
2019-04-14T18:29:10.259Z,11.18
2019-04-14T18:31:56.635Z,11.10
2019-04-14T18:34:30.508Z,10.93
2019-04-14T18:37:19.078Z,11.93
2019-04-14T18:39:50.231Z,11.50
2019-04-14T18:42:22.789Z,12.05
2019-04-14T18:44:59.800Z,11.85
2019-04-14T18:47:35.131Z,11.80
2019-04-14T18:50:06.788Z,11.57
2019-04-14T18:52:42.240Z,11.68
2019-04-14T18:55:19.580Z,11.77
2019-04-14T18:57:52.229Z,12.00
2019-04-14T19:00:25.803Z,12.10
2019-04-14T19:02:55.528Z,11.05
2019-04-14T19:05:26.451Z,11.05
2019-04-14T19:07:56.373Z,9.95
2019-04-14T19:10:27.209Z,10.35
2019-04-14T19:13:16.976Z,11.00
2019-04-14T19:15:48.338Z,10.32
2019-04-14T19:18:28.374Z,11.00
2019-04-14T19:21:02.484Z,10.10
2019-04-14T19:23:32.499Z,11.68
2019-04-14T19:26:01.996Z,9.77
2019-04-14T19:28:31.509Z,11.18
2019-04-14T19:31:00.964Z,10.25
2019-04-14T19:33:30.612Z,10.77
2019-04-14T19:36:00.428Z,11.15
2019-04-14T19:38:30.242Z,10.53
2019-04-14T19:41:01.208Z,10.18
2019-04-14T19:43:30.763Z,11.25
2019-04-14T19:46:00.390Z,11.35
2019-04-14T19:48:30.046Z,11.50
2019-04-14T19:50:59.728Z,10.87
2019-04-14T19:53:29.134Z,12.80
2019-04-14T19:55:58.639Z,13.10
2019-04-14T19:58:28.627Z,12.95
2019-04-14T20:00:59.354Z,11.95
2019-04-14T20:03:28.849Z,12.25
2019-04-14T20:05:58.358Z,12.28
2019-04-14T20:08:27.848Z,11.10
2019-04-14T20:10:58.562Z,10.78
2019-04-14T20:13:30.604Z,11.43
2019-04-14T20:16:17.649Z,12.30
2019-04-14T20:18:51.372Z,12.30
2019-04-14T20:21:28.501Z,11.18
2019-04-14T20:23:59.615Z,11.30
2019-04-14T20:26:33.382Z,11.80
2019-04-14T20:29:04.519Z,11.35
2019-04-14T20:31:42.870Z,11.50
2019-04-14T20:34:12.414Z,12.97
2019-04-14T20:36:41.934Z,12.15
2019-04-14T20:39:12.989Z,11.93
2019-04-14T20:41:43.986Z,12.43
2019-04-14T20:44:13.853Z,11.45
2019-04-14T20:46:44.771Z,12.70
2019-04-14T20:49:14.196Z,12.30
2019-04-14T20:51:45.044Z,13.32
2019-04-14T20:54:14.566Z,12.13
2019-04-14T20:56:45.295Z,12.23
2019-04-14T20:59:14.885Z,10.80
2019-04-14T21:01:47.521Z,12.30
2019-04-14T21:04:21.114Z,12.40
2019-04-14T21:06:58.294Z,11.85
2019-04-14T21:09:35.276Z,12.58
2019-04-14T21:12:06.437Z,11.90
2019-04-14T21:14:52.713Z,13.00
2019-04-14T21:17:32.830Z,13.20
2019-04-14T21:20:12.638Z,12.30
2019-04-14T21:22:48.270Z,12.40
2019-04-14T21:25:19.498Z,12.85
2019-04-14T21:28:08.256Z,12.03
2019-04-14T21:30:45.528Z,11.20
2019-04-14T21:33:16.696Z,12.70
2019-04-14T21:36:04.035Z,11.95
2019-04-14T21:38:53.260Z,12.40
2019-04-14T21:41:24.314Z,12.07
2019-04-14T21:43:53.860Z,12.73
2019-04-14T21:46:23.334Z,12.47
2019-04-14T21:48:52.859Z,11.08
2019-04-14T21:51:25.390Z,12.85
2019-04-14T21:53:54.851Z,11.57
2019-04-14T21:56:27.384Z,12.93
2019-04-14T21:59:01.485Z,13.85
2019-04-14T22:01:53.889Z,13.08
2019-04-14T22:04:28.446Z,13.22
2019-04-14T22:06:59.580Z,12.98
2019-04-14T22:09:30.831Z,13.60
2019-04-14T22:12:01.958Z,13.25
2019-04-14T22:14:31.483Z,14.03
2019-04-14T22:17:00.971Z,12.90
2019-04-14T22:19:30.562Z,12.68
2019-04-14T22:22:01.250Z,12.40
2019-04-14T22:24:30.774Z,12.68
2019-04-14T22:27:00.427Z,12.28
2019-04-14T22:29:30.034Z,11.20
2019-04-14T22:32:00.766Z,11.70
2019-04-14T22:34:30.404Z,11.68
2019-04-14T22:37:01.205Z,11.90
2019-04-14T22:39:30.736Z,13.53
2019-04-14T22:42:00.219Z,13.32
2019-04-14T22:44:29.722Z,11.87
2019-04-14T22:47:00.678Z,12.53
2019-04-14T22:49:30.199Z,12.73
2019-04-14T22:51:59.691Z,12.35
2019-04-14T22:54:29.170Z,12.90
2019-04-14T22:56:58.659Z,13.35
2019-04-14T22:59:28.184Z,12.20
2019-04-14T23:02:06.553Z,13.88
2019-04-14T23:04:53.765Z,13.20
2019-04-14T23:07:31.934Z,12.28
2019-04-14T23:10:03.063Z,11.90
2019-04-14T23:12:48.142Z,13.60
2019-04-14T23:15:31.067Z,12.70
2019-04-14T23:18:03.766Z,11.12
2019-04-14T23:20:52.972Z,12.88
2019-04-14T23:23:42.083Z,11.70
2019-04-14T23:26:12.915Z,11.88
2019-04-14T23:28:42.406Z,12.88
2019-04-14T23:31:11.987Z,11.40
2019-04-14T23:33:41.630Z,13.23
2019-04-14T23:36:11.202Z,12.45
2019-04-14T23:38:40.693Z,10.98
2019-04-14T23:41:11.423Z,14.17
2019-04-14T23:43:41.012Z,12.60
2019-04-14T23:46:11.769Z,12.23
2019-04-14T23:48:41.328Z,12.85
2019-04-14T23:51:10.936Z,12.80
2019-04-14T23:53:40.399Z,12.43
2019-04-14T23:56:11.194Z,14.20
2019-04-14T23:58:40.679Z,13.35
